sensor_id;sensor_type;location;lat;lon;timestamp;temperature;humidity
56103;DHT22;41970;48.774;9.280;2023-09-12T00:01:28;20.60;99.90
56103;DHT22;41970;48.774;9.280;2023-09-12T00:03:58;20.50;99.90
56103;DHT22;41970;48.774;9.280;2023-09-12T00:06:24;20.50;99.90
56103;DHT22;41970;48.774;9.280;2023-09-12T00:08:51;20.50;99.90
56103;DHT22;41970;48.774;9.280;2023-09-12T00:11:17;20.50;99.90
56103;DHT22;41970;48.774;9.280;2023-09-12T00:13:43;20.40;99.90
56103;DHT22;41970;48.774;9.280;2023-09-12T00:16:09;20.50;99.90
56103;DHT22;41970;48.774;9.280;2023-09-12T00:18:39;20.50;99.90
56103;DHT22;41970;48.774;9.280;2023-09-12T00:21:04;20.60;99.90
56103;DHT22;41970;48.774;9.280;2023-09-12T00:23:30;20.50;99.90
56103;DHT22;41970;48.774;9.280;2023-09-12T00:25:57;20.50;99.90
56103;DHT22;41970;48.774;9.280;2023-09-12T00:28:23;20.50;99.90
56103;DHT22;41970;48.774;9.280;2023-09-12T00:30:49;20.60;99.90
56103;DHT22;41970;48.774;9.280;2023-09-12T00:33:14;20.50;99.90
56103;DHT22;41970;48.774;9.280;2023-09-12T00:35:40;20.50;99.90
56103;DHT22;41970;48.774;9.280;2023-09-12T00:38:06;20.50;99.90
56103;DHT22;41970;48.774;9.280;2023-09-12T00:40:32;20.40;99.90
56103;DHT22;41970;48.774;9.280;2023-09-12T00:42:58;20.40;99.90
56103;DHT22;41970;48.774;9.280;2023-09-12T00:45:24;20.40;99.90
56103;DHT22;41970;48.774;9.280;2023-09-12T00:47:51;20.40;99.90
56103;DHT22;41970;48.774;9.280;2023-09-12T00:50:19;20.40;99.90
56103;DHT22;41970;48.774;9.280;2023-09-12T00:52:46;20.30;99.90
56103;DHT22;41970;48.774;9.280;2023-09-12T00:55:13;20.30;99.90
56103;DHT22;41970;48.774;9.280;2023-09-12T00:57:39;20.20;99.90
56103;DHT22;41970;48.774;9.280;2023-09-12T01:00:06;20.20;99.90
56103;DHT22;41970;48.774;9.280;2023-09-12T01:02:39;20.20;99.90
56103;DHT22;41970;48.774;9.280;2023-09-12T01:05:06;20.20;99.90
56103;DHT22;41970;48.774;9.280;2023-09-12T01:07:33;20.20;99.90
56103;DHT22;41970;48.774;9.280;2023-09-12T01:09:59;20.20;99.90
56103;DHT22;41970;48.774;9.280;2023-09-12T01:12:25;20.20;99.90
56103;DHT22;41970;48.774;9.280;2023-09-12T01:14:51;20.10;99.90
56103;DHT22;41970;48.774;9.280;2023-09-12T01:17:17;20.10;99.90
56103;DHT22;41970;48.774;9.280;2023-09-12T01:19:42;20.00;99.90
56103;DHT22;41970;48.774;9.280;2023-09-12T01:27:25;20.10;99.90
56103;DHT22;41970;48.774;9.280;2023-09-12T01:29:56;20.00;99.90
56103;DHT22;41970;48.774;9.280;2023-09-12T01:32:23;20.00;99.90
56103;DHT22;41970;48.774;9.280;2023-09-12T01:34:49;19.90;99.90
56103;DHT22;41970;48.774;9.280;2023-09-12T01:37:15;20.00;99.90
56103;DHT22;41970;48.774;9.280;2023-09-12T01:39:41;20.00;99.90
56103;DHT22;41970;48.774;9.280;2023-09-12T01:42:13;20.00;99.90
56103;DHT22;41970;48.774;9.280;2023-09-12T01:44:42;19.90;99.90
56103;DHT22;41970;48.774;9.280;2023-09-12T01:47:10;19.80;99.90
56103;DHT22;41970;48.774;9.280;2023-09-12T01:49:39;19.90;99.90
56103;DHT22;41970;48.774;9.280;2023-09-12T01:52:05;19.90;99.90
56103;DHT22;41970;48.774;9.280;2023-09-12T01:54:33;19.80;99.90
56103;DHT22;41970;48.774;9.280;2023-09-12T01:57:00;19.80;99.90
56103;DHT22;41970;48.774;9.280;2023-09-12T01:59:28;19.80;99.90
56103;DHT22;41970;48.774;9.280;2023-09-12T02:01:53;19.70;99.90
56103;DHT22;41970;48.774;9.280;2023-09-12T02:04:19;19.70;99.90
56103;DHT22;41970;48.774;9.280;2023-09-12T02:06:45;19.70;99.90
56103;DHT22;41970;48.774;9.280;2023-09-12T02:09:10;19.70;99.90
56103;DHT22;41970;48.774;9.280;2023-09-12T02:11:36;19.60;99.90
56103;DHT22;41970;48.774;9.280;2023-09-12T02:14:02;19.70;99.90
56103;DHT22;41970;48.774;9.280;2023-09-12T02:16:29;19.70;99.90
56103;DHT22;41970;48.774;9.280;2023-09-12T02:18:54;19.70;99.90
56103;DHT22;41970;48.774;9.280;2023-09-12T02:21:20;19.60;99.90
56103;DHT22;41970;48.774;9.280;2023-09-12T02:23:46;19.60;99.90
56103;DHT22;41970;48.774;9.280;2023-09-12T02:26:11;19.50;99.90
56103;DHT22;41970;48.774;9.280;2023-09-12T02:28:37;19.50;99.90
56103;DHT22;41970;48.774;9.280;2023-09-12T02:31:03;19.50;99.90
56103;DHT22;41970;48.774;9.280;2023-09-12T02:33:29;19.60;99.90
56103;DHT22;41970;48.774;9.280;2023-09-12T02:35:54;19.60;99.90
56103;DHT22;41970;48.774;9.280;2023-09-12T02:38:20;19.60;99.90
56103;DHT22;41970;48.774;9.280;2023-09-12T02:40:46;19.60;99.90
56103;DHT22;41970;48.774;9.280;2023-09-12T02:43:11;19.70;99.90
56103;DHT22;41970;48.774;9.280;2023-09-12T02:45:37;19.70;99.90
56103;DHT22;41970;48.774;9.280;2023-09-12T02:48:03;19.70;99.90
56103;DHT22;41970;48.774;9.280;2023-09-12T02:50:29;19.70;99.90
56103;DHT22;41970;48.774;9.280;2023-09-12T02:52:55;19.70;99.90
56103;DHT22;41970;48.774;9.280;2023-09-12T02:55:20;19.80;99.90
56103;DHT22;41970;48.774;9.280;2023-09-12T02:57:46;19.70;99.90
56103;DHT22;41970;48.774;9.280;2023-09-12T03:00:13;19.70;99.90
56103;DHT22;41970;48.774;9.280;2023-09-12T03:02:39;19.90;99.90
56103;DHT22;41970;48.774;9.280;2023-09-12T03:05:05;20.00;99.90
56103;DHT22;41970;48.774;9.280;2023-09-12T03:07:31;20.00;99.90
56103;DHT22;41970;48.774;9.280;2023-09-12T03:09:56;20.00;99.90
56103;DHT22;41970;48.774;9.280;2023-09-12T03:12:22;20.00;99.90
56103;DHT22;41970;48.774;9.280;2023-09-12T03:14:48;20.00;99.90
56103;DHT22;41970;48.774;9.280;2023-09-12T03:17:14;19.90;99.90
56103;DHT22;41970;48.774;9.280;2023-09-12T03:19:39;19.80;99.90
56103;DHT22;41970;48.774;9.280;2023-09-12T03:22:05;19.80;99.90
56103;DHT22;41970;48.774;9.280;2023-09-12T03:24:31;19.80;99.90
56103;DHT22;41970;48.774;9.280;2023-09-12T03:26:56;19.70;99.90
56103;DHT22;41970;48.774;9.280;2023-09-12T03:29:22;19.60;99.90
56103;DHT22;41970;48.774;9.280;2023-09-12T03:31:48;19.60;99.90
56103;DHT22;41970;48.774;9.280;2023-09-12T03:34:14;19.70;99.90
56103;DHT22;41970;48.774;9.280;2023-09-12T03:36:40;19.70;99.90
56103;DHT22;41970;48.774;9.280;2023-09-12T03:39:05;19.70;99.90
56103;DHT22;41970;48.774;9.280;2023-09-12T03:41:34;19.90;99.90
56103;DHT22;41970;48.774;9.280;2023-09-12T03:44:00;19.90;99.90
56103;DHT22;41970;48.774;9.280;2023-09-12T03:46:26;19.90;99.90
56103;DHT22;41970;48.774;9.280;2023-09-12T03:48:52;19.80;99.90
56103;DHT22;41970;48.774;9.280;2023-09-12T03:51:17;19.80;99.90
56103;DHT22;41970;48.774;9.280;2023-09-12T03:53:43;19.70;99.90
56103;DHT22;41970;48.774;9.280;2023-09-12T03:56:09;19.70;99.90
56103;DHT22;41970;48.774;9.280;2023-09-12T03:58:38;19.70;99.90
56103;DHT22;41970;48.774;9.280;2023-09-12T04:01:04;19.60;99.90
56103;DHT22;41970;48.774;9.280;2023-09-12T04:03:30;19.60;99.90
56103;DHT22;41970;48.774;9.280;2023-09-12T04:05:55;19.60;99.90
56103;DHT22;41970;48.774;9.280;2023-09-12T04:08:21;19.60;99.90
56103;DHT22;41970;48.774;9.280;2023-09-12T04:10:47;19.60;99.90
56103;DHT22;41970;48.774;9.280;2023-09-12T04:13:13;19.60;99.90
56103;DHT22;41970;48.774;9.280;2023-09-12T04:15:38;19.60;99.90
56103;DHT22;41970;48.774;9.280;2023-09-12T04:18:04;19.50;99.90
56103;DHT22;41970;48.774;9.280;2023-09-12T04:20:30;19.60;99.90
56103;DHT22;41970;48.774;9.280;2023-09-12T04:22:56;19.60;99.90
56103;DHT22;41970;48.774;9.280;2023-09-12T04:25:22;19.60;99.90
56103;DHT22;41970;48.774;9.280;2023-09-12T04:27:47;19.60;99.90
56103;DHT22;41970;48.774;9.280;2023-09-12T04:30:13;19.40;99.90
56103;DHT22;41970;48.774;9.280;2023-09-12T04:32:39;19.40;99.90
56103;DHT22;41970;48.774;9.280;2023-09-12T04:35:05;19.30;99.90
56103;DHT22;41970;48.774;9.280;2023-09-12T04:37:31;19.30;99.90
56103;DHT22;41970;48.774;9.280;2023-09-12T04:39:57;19.30;99.90
56103;DHT22;41970;48.774;9.280;2023-09-12T04:42:22;19.20;99.90
56103;DHT22;41970;48.774;9.280;2023-09-12T04:44:48;19.20;99.90
56103;DHT22;41970;48.774;9.280;2023-09-12T04:47:14;19.30;99.90
56103;DHT22;41970;48.774;9.280;2023-09-12T04:49:40;19.40;99.90
56103;DHT22;41970;48.774;9.280;2023-09-12T04:52:06;19.50;99.90
56103;DHT22;41970;48.774;9.280;2023-09-12T04:54:32;19.50;99.90
56103;DHT22;41970;48.774;9.280;2023-09-12T04:56:57;19.50;99.90
56103;DHT22;41970;48.774;9.280;2023-09-12T04:59:23;19.50;99.90
56103;DHT22;41970;48.774;9.280;2023-09-12T05:01:49;19.50;99.90
56103;DHT22;41970;48.774;9.280;2023-09-12T05:04:16;19.50;99.90
56103;DHT22;41970;48.774;9.280;2023-09-12T05:06:42;19.50;99.90
56103;DHT22;41970;48.774;9.280;2023-09-12T05:09:07;19.50;99.90
56103;DHT22;41970;48.774;9.280;2023-09-12T05:11:34;19.50;99.90
56103;DHT22;41970;48.774;9.280;2023-09-12T05:14:00;19.50;99.90
56103;DHT22;41970;48.774;9.280;2023-09-12T05:16:29;19.40;99.90
56103;DHT22;41970;48.774;9.280;2023-09-12T05:18:54;19.30;99.90
56103;DHT22;41970;48.774;9.280;2023-09-12T05:21:20;19.30;99.90
56103;DHT22;41970;48.774;9.280;2023-09-12T05:23:46;19.20;99.90
56103;DHT22;41970;48.774;9.280;2023-09-12T05:26:12;19.30;99.90
56103;DHT22;41970;48.774;9.280;2023-09-12T05:28:38;19.30;99.90
56103;DHT22;41970;48.774;9.280;2023-09-12T05:31:03;19.40;99.90
56103;DHT22;41970;48.774;9.280;2023-09-12T05:33:29;19.50;99.90
56103;DHT22;41970;48.774;9.280;2023-09-12T05:35:55;19.50;99.90
56103;DHT22;41970;48.774;9.280;2023-09-12T05:38:20;19.50;99.90
56103;DHT22;41970;48.774;9.280;2023-09-12T05:40:46;19.60;99.90
56103;DHT22;41970;48.774;9.280;2023-09-12T05:43:15;19.50;99.90
56103;DHT22;41970;48.774;9.280;2023-09-12T05:45:41;19.50;99.90
56103;DHT22;41970;48.774;9.280;2023-09-12T05:48:07;19.60;99.90
56103;DHT22;41970;48.774;9.280;2023-09-12T05:50:32;19.70;99.90
56103;DHT22;41970;48.774;9.280;2023-09-12T05:52:58;19.70;99.90
56103;DHT22;41970;48.774;9.280;2023-09-12T05:55:24;19.80;99.90
56103;DHT22;41970;48.774;9.280;2023-09-12T05:57:50;19.70;99.90
56103;DHT22;41970;48.774;9.280;2023-09-12T06:00:19;19.70;99.90
56103;DHT22;41970;48.774;9.280;2023-09-12T06:02:46;19.60;99.90
56103;DHT22;41970;48.774;9.280;2023-09-12T06:05:12;19.60;99.90
56103;DHT22;41970;48.774;9.280;2023-09-12T06:07:38;19.70;99.90
56103;DHT22;41970;48.774;9.280;2023-09-12T06:10:06;19.70;99.90
56103;DHT22;41970;48.774;9.280;2023-09-12T06:12:32;19.70;99.90
56103;DHT22;41970;48.774;9.280;2023-09-12T06:14:59;19.60;99.90
56103;DHT22;41970;48.774;9.280;2023-09-12T06:17:25;19.60;99.90
56103;DHT22;41970;48.774;9.280;2023-09-12T06:19:50;19.70;99.90
56103;DHT22;41970;48.774;9.280;2023-09-12T06:22:17;19.70;99.90
56103;DHT22;41970;48.774;9.280;2023-09-12T06:24:44;19.70;99.90
56103;DHT22;41970;48.774;9.280;2023-09-12T06:27:09;19.70;99.90
56103;DHT22;41970;48.774;9.280;2023-09-12T06:29:38;19.80;99.90
56103;DHT22;41970;48.774;9.280;2023-09-12T06:32:04;19.80;99.90
56103;DHT22;41970;48.774;9.280;2023-09-12T06:34:30;19.90;99.90
56103;DHT22;41970;48.774;9.280;2023-09-12T06:36:55;19.90;99.90
56103;DHT22;41970;48.774;9.280;2023-09-12T06:39:21;20.00;99.90
56103;DHT22;41970;48.774;9.280;2023-09-12T06:41:48;20.00;99.90
56103;DHT22;41970;48.774;9.280;2023-09-12T06:44:13;20.10;99.90
56103;DHT22;41970;48.774;9.280;2023-09-12T06:46:39;20.30;99.90
56103;DHT22;41970;48.774;9.280;2023-09-12T06:49:05;20.40;99.90
56103;DHT22;41970;48.774;9.280;2023-09-12T06:51:31;20.50;99.90
56103;DHT22;41970;48.774;9.280;2023-09-12T06:53:56;20.70;99.90
56103;DHT22;41970;48.774;9.280;2023-09-12T06:56:22;20.80;99.90
56103;DHT22;41970;48.774;9.280;2023-09-12T06:58:48;20.90;99.90
56103;DHT22;41970;48.774;9.280;2023-09-12T07:01:14;21.00;99.90
56103;DHT22;41970;48.774;9.280;2023-09-12T07:03:39;21.20;99.90
56103;DHT22;41970;48.774;9.280;2023-09-12T07:06:05;21.50;99.90
56103;DHT22;41970;48.774;9.280;2023-09-12T07:08:31;21.50;99.90
56103;DHT22;41970;48.774;9.280;2023-09-12T07:10:58;21.50;99.90
56103;DHT22;41970;48.774;9.280;2023-09-12T07:13:25;21.60;99.90
56103;DHT22;41970;48.774;9.280;2023-09-12T07:15:51;21.70;99.90
56103;DHT22;41970;48.774;9.280;2023-09-12T07:18:17;21.70;99.90
56103;DHT22;41970;48.774;9.280;2023-09-12T07:20:43;21.80;99.90
56103;DHT22;41970;48.774;9.280;2023-09-12T07:23:08;21.90;99.90
56103;DHT22;41970;48.774;9.280;2023-09-12T07:25:41;22.00;99.90
56103;DHT22;41970;48.774;9.280;2023-09-12T07:28:08;22.10;99.90
56103;DHT22;41970;48.774;9.280;2023-09-12T07:30:33;22.30;99.90
56103;DHT22;41970;48.774;9.280;2023-09-12T07:32:59;22.40;99.90
56103;DHT22;41970;48.774;9.280;2023-09-12T07:35:25;22.40;99.90
56103;DHT22;41970;48.774;9.280;2023-09-12T07:37:51;22.60;99.90
56103;DHT22;41970;48.774;9.280;2023-09-12T07:40:17;22.80;99.90
56103;DHT22;41970;48.774;9.280;2023-09-12T07:42:43;23.00;99.90
56103;DHT22;41970;48.774;9.280;2023-09-12T07:45:09;23.40;99.90
56103;DHT22;41970;48.774;9.280;2023-09-12T07:47:35;23.90;99.90
56103;DHT22;41970;48.774;9.280;2023-09-12T07:50:01;24.30;99.90
56103;DHT22;41970;48.774;9.280;2023-09-12T07:52:27;24.50;99.90
56103;DHT22;41970;48.774;9.280;2023-09-12T07:54:53;24.70;99.90
56103;DHT22;41970;48.774;9.280;2023-09-12T07:57:24;24.80;99.90
56103;DHT22;41970;48.774;9.280;2023-09-12T07:59:49;24.80;99.90
56103;DHT22;41970;48.774;9.280;2023-09-12T08:02:15;24.80;99.90
56103;DHT22;41970;48.774;9.280;2023-09-12T08:04:41;24.80;99.90
56103;DHT22;41970;48.774;9.280;2023-09-12T08:07:07;24.80;99.90
56103;DHT22;41970;48.774;9.280;2023-09-12T08:09:52;24.80;99.90
56103;DHT22;41970;48.774;9.280;2023-09-12T08:12:21;24.90;99.90
56103;DHT22;41970;48.774;9.280;2023-09-12T08:14:48;25.00;99.90
56103;DHT22;41970;48.774;9.280;2023-09-12T08:17:14;25.10;99.90
56103;DHT22;41970;48.774;9.280;2023-09-12T08:19:40;25.50;99.90
56103;DHT22;41970;48.774;9.280;2023-09-12T08:22:07;25.90;99.90
56103;DHT22;41970;48.774;9.280;2023-09-12T08:24:33;26.60;99.90
56103;DHT22;41970;48.774;9.280;2023-09-12T08:27:00;27.00;99.90
56103;DHT22;41970;48.774;9.280;2023-09-12T08:29:27;27.40;99.90
56103;DHT22;41970;48.774;9.280;2023-09-12T08:31:53;27.90;99.90
56103;DHT22;41970;48.774;9.280;2023-09-12T08:34:19;28.30;99.00
56103;DHT22;41970;48.774;9.280;2023-09-12T08:36:45;28.10;98.30
56103;DHT22;41970;48.774;9.280;2023-09-12T08:39:16;27.90;98.90
56103;DHT22;41970;48.774;9.280;2023-09-12T08:41:42;27.90;99.30
56103;DHT22;41970;48.774;9.280;2023-09-12T08:44:09;27.30;99.70
56103;DHT22;41970;48.774;9.280;2023-09-12T08:46:35;27.20;99.80
56103;DHT22;41970;48.774;9.280;2023-09-12T08:49:04;27.10;99.90
56103;DHT22;41970;48.774;9.280;2023-09-12T08:51:30;26.90;99.90
56103;DHT22;41970;48.774;9.280;2023-09-12T08:53:58;26.90;99.90
56103;DHT22;41970;48.774;9.280;2023-09-12T08:56:25;27.00;99.90
56103;DHT22;41970;48.774;9.280;2023-09-12T08:58:51;27.40;99.90
56103;DHT22;41970;48.774;9.280;2023-09-12T09:01:19;27.70;99.30
56103;DHT22;41970;48.774;9.280;2023-09-12T09:03:46;28.20;99.60
56103;DHT22;41970;48.774;9.280;2023-09-12T09:06:13;28.40;98.30
56103;DHT22;41970;48.774;9.280;2023-09-12T09:08:40;28.40;97.70
56103;DHT22;41970;48.774;9.280;2023-09-12T09:11:07;28.70;98.20
56103;DHT22;41970;48.774;9.280;2023-09-12T09:13:32;28.90;97.90
56103;DHT22;41970;48.774;9.280;2023-09-12T09:16:18;29.50;97.00
56103;DHT22;41970;48.774;9.280;2023-09-12T09:18:53;29.80;96.80
56103;DHT22;41970;48.774;9.280;2023-09-12T09:21:20;30.10;96.20
56103;DHT22;41970;48.774;9.280;2023-09-12T09:23:46;30.20;95.30
56103;DHT22;41970;48.774;9.280;2023-09-12T09:26:12;30.40;95.10
56103;DHT22;41970;48.774;9.280;2023-09-12T09:28:38;30.30;95.70
56103;DHT22;41970;48.774;9.280;2023-09-12T09:31:10;30.50;95.60
56103;DHT22;41970;48.774;9.280;2023-09-12T09:33:36;30.60;94.90
56103;DHT22;41970;48.774;9.280;2023-09-12T09:36:06;30.80;95.00
56103;DHT22;41970;48.774;9.280;2023-09-12T09:38:33;30.90;95.30
56103;DHT22;41970;48.774;9.280;2023-09-12T09:40:59;31.00;95.50
56103;DHT22;41970;48.774;9.280;2023-09-12T09:43:25;31.10;95.10
56103;DHT22;41970;48.774;9.280;2023-09-12T09:45:51;31.00;94.50
56103;DHT22;41970;48.774;9.280;2023-09-12T09:48:20;31.00;94.70
56103;DHT22;41970;48.774;9.280;2023-09-12T09:50:46;30.60;94.60
56103;DHT22;41970;48.774;9.280;2023-09-12T09:53:12;30.10;95.10
56103;DHT22;41970;48.774;9.280;2023-09-12T09:55:38;29.60;95.80
56103;DHT22;41970;48.774;9.280;2023-09-12T09:58:06;29.60;96.20
56103;DHT22;41970;48.774;9.280;2023-09-12T10:00:34;29.60;95.60
56103;DHT22;41970;48.774;9.280;2023-09-12T10:03:04;29.40;95.60
56103;DHT22;41970;48.774;9.280;2023-09-12T10:05:32;29.20;95.40
56103;DHT22;41970;48.774;9.280;2023-09-12T10:07:59;29.30;96.10
56103;DHT22;41970;48.774;9.280;2023-09-12T10:10:29;29.30;95.50
56103;DHT22;41970;48.774;9.280;2023-09-12T10:12:58;29.30;96.40
56103;DHT22;41970;48.774;9.280;2023-09-12T10:15:29;29.40;95.30
56103;DHT22;41970;48.774;9.280;2023-09-12T10:17:57;29.40;95.00
56103;DHT22;41970;48.774;9.280;2023-09-12T10:20:28;29.20;95.20
56103;DHT22;41970;48.774;9.280;2023-09-12T10:23:07;29.30;95.40
56103;DHT22;41970;48.774;9.280;2023-09-12T10:25:36;29.30;94.80
56103;DHT22;41970;48.774;9.280;2023-09-12T10:28:06;29.40;95.00
56103;DHT22;41970;48.774;9.280;2023-09-12T10:30:33;29.60;94.40
56103;DHT22;41970;48.774;9.280;2023-09-12T10:33:02;29.70;94.50
56103;DHT22;41970;48.774;9.280;2023-09-12T10:35:30;29.80;94.70
56103;DHT22;41970;48.774;9.280;2023-09-12T10:38:00;29.90;95.00
56103;DHT22;41970;48.774;9.280;2023-09-12T10:40:27;30.20;95.30
56103;DHT22;41970;48.774;9.280;2023-09-12T10:42:55;30.20;94.50
56103;DHT22;41970;48.774;9.280;2023-09-12T10:45:22;30.30;94.60
56103;DHT22;41970;48.774;9.280;2023-09-12T10:47:48;30.40;94.30
56103;DHT22;41970;48.774;9.280;2023-09-12T10:50:14;30.50;93.70
56103;DHT22;41970;48.774;9.280;2023-09-12T10:52:39;30.60;93.80
56103;DHT22;41970;48.774;9.280;2023-09-12T10:55:07;30.50;93.30
56103;DHT22;41970;48.774;9.280;2023-09-12T10:57:33;30.30;93.30
56103;DHT22;41970;48.774;9.280;2023-09-12T11:04:56;30.10;93.90
56103;DHT22;41970;48.774;9.280;2023-09-12T11:12:40;30.40;93.40
56103;DHT22;41970;48.774;9.280;2023-09-12T11:15:07;30.50;93.20
56103;DHT22;41970;48.774;9.280;2023-09-12T11:17:40;30.50;93.70
56103;DHT22;41970;48.774;9.280;2023-09-12T11:20:07;30.50;93.60
56103;DHT22;41970;48.774;9.280;2023-09-12T11:22:46;30.50;93.10
56103;DHT22;41970;48.774;9.280;2023-09-12T11:25:26;30.50;92.70
56103;DHT22;41970;48.774;9.280;2023-09-12T11:30:22;30.30;92.30
56103;DHT22;41970;48.774;9.280;2023-09-12T11:32:50;30.40;92.30
56103;DHT22;41970;48.774;9.280;2023-09-12T11:35:27;30.10;92.50
56103;DHT22;41970;48.774;9.280;2023-09-12T11:37:58;30.00;92.50
56103;DHT22;41970;48.774;9.280;2023-09-12T11:43:00;29.60;90.50
56103;DHT22;41970;48.774;9.280;2023-09-12T11:45:27;29.50;90.00
56103;DHT22;41970;48.774;9.280;2023-09-12T11:47:54;29.50;89.60
56103;DHT22;41970;48.774;9.280;2023-09-12T11:50:36;29.40;87.80
56103;DHT22;41970;48.774;9.280;2023-09-12T11:53:09;29.70;87.90
56103;DHT22;41970;48.774;9.280;2023-09-12T11:55:49;29.90;90.20
56103;DHT22;41970;48.774;9.280;2023-09-12T11:58:18;30.00;90.50
56103;DHT22;41970;48.774;9.280;2023-09-12T12:00:52;30.30;90.20
56103;DHT22;41970;48.774;9.280;2023-09-12T12:03:24;30.40;89.20
56103;DHT22;41970;48.774;9.280;2023-09-12T12:05:51;30.60;88.90
56103;DHT22;41970;48.774;9.280;2023-09-12T12:08:18;30.70;89.00
56103;DHT22;41970;48.774;9.280;2023-09-12T12:10:48;30.80;90.10
56103;DHT22;41970;48.774;9.280;2023-09-12T12:13:18;30.80;90.50
56103;DHT22;41970;48.774;9.280;2023-09-12T12:15:44;30.90;91.50
56103;DHT22;41970;48.774;9.280;2023-09-12T12:18:10;31.00;91.50
56103;DHT22;41970;48.774;9.280;2023-09-12T12:20:36;31.00;91.50
56103;DHT22;41970;48.774;9.280;2023-09-12T12:23:02;30.90;91.40
56103;DHT22;41970;48.774;9.280;2023-09-12T12:25:32;30.80;91.40
56103;DHT22;41970;48.774;9.280;2023-09-12T12:28:00;30.90;91.10
56103;DHT22;41970;48.774;9.280;2023-09-12T12:30:29;31.00;90.80
56103;DHT22;41970;48.774;9.280;2023-09-12T12:32:55;30.90;91.10
56103;DHT22;41970;48.774;9.280;2023-09-12T12:35:22;31.00;91.30
56103;DHT22;41970;48.774;9.280;2023-09-12T12:37:49;31.00;90.80
56103;DHT22;41970;48.774;9.280;2023-09-12T12:40:16;31.10;90.90
56103;DHT22;41970;48.774;9.280;2023-09-12T12:42:43;31.10;90.70
56103;DHT22;41970;48.774;9.280;2023-09-12T12:45:18;31.20;90.20
56103;DHT22;41970;48.774;9.280;2023-09-12T12:47:45;31.20;90.20
56103;DHT22;41970;48.774;9.280;2023-09-12T12:50:12;31.10;90.10
56103;DHT22;41970;48.774;9.280;2023-09-12T12:52:38;31.00;89.90
56103;DHT22;41970;48.774;9.280;2023-09-12T12:55:06;31.10;88.90
56103;DHT22;41970;48.774;9.280;2023-09-12T12:57:32;31.10;88.80
56103;DHT22;41970;48.774;9.280;2023-09-12T12:59:58;31.20;88.80
56103;DHT22;41970;48.774;9.280;2023-09-12T13:02:25;31.20;88.30
56103;DHT22;41970;48.774;9.280;2023-09-12T13:04:50;31.20;87.40
56103;DHT22;41970;48.774;9.280;2023-09-12T13:07:16;31.20;87.40
56103;DHT22;41970;48.774;9.280;2023-09-12T13:09:42;31.20;86.40
56103;DHT22;41970;48.774;9.280;2023-09-12T13:12:08;31.30;86.40
56103;DHT22;41970;48.774;9.280;2023-09-12T13:14:34;31.50;85.60
56103;DHT22;41970;48.774;9.280;2023-09-12T13:16:59;31.50;86.20
56103;DHT22;41970;48.774;9.280;2023-09-12T13:19:28;31.40;87.30
56103;DHT22;41970;48.774;9.280;2023-09-12T13:21:54;31.30;85.90
56103;DHT22;41970;48.774;9.280;2023-09-12T13:24:20;31.40;86.70
56103;DHT22;41970;48.774;9.280;2023-09-12T13:26:46;31.40;87.50
56103;DHT22;41970;48.774;9.280;2023-09-12T13:29:11;31.40;86.20
56103;DHT22;41970;48.774;9.280;2023-09-12T13:31:37;31.20;86.00
56103;DHT22;41970;48.774;9.280;2023-09-12T13:34:03;31.10;86.90
56103;DHT22;41970;48.774;9.280;2023-09-12T13:36:29;31.10;86.60
56103;DHT22;41970;48.774;9.280;2023-09-12T13:38:54;31.00;85.70
56103;DHT22;41970;48.774;9.280;2023-09-12T13:41:21;30.90;86.20
56103;DHT22;41970;48.774;9.280;2023-09-12T13:43:48;30.90;86.90
56103;DHT22;41970;48.774;9.280;2023-09-12T13:46:14;31.10;85.60
56103;DHT22;41970;48.774;9.280;2023-09-12T13:48:41;31.20;84.40
56103;DHT22;41970;48.774;9.280;2023-09-12T13:51:07;31.10;85.30
56103;DHT22;41970;48.774;9.280;2023-09-12T13:53:33;31.00;86.80
56103;DHT22;41970;48.774;9.280;2023-09-12T13:55:59;30.90;88.30
56103;DHT22;41970;48.774;9.280;2023-09-12T13:58:26;30.90;87.60
56103;DHT22;41970;48.774;9.280;2023-09-12T14:00:52;30.80;87.80
56103;DHT22;41970;48.774;9.280;2023-09-12T14:03:18;30.90;89.00
56103;DHT22;41970;48.774;9.280;2023-09-12T14:05:43;30.80;89.10
56103;DHT22;41970;48.774;9.280;2023-09-12T14:08:09;30.70;89.30
56103;DHT22;41970;48.774;9.280;2023-09-12T14:10:35;30.60;89.20
56103;DHT22;41970;48.774;9.280;2023-09-12T14:13:01;30.70;88.70
56103;DHT22;41970;48.774;9.280;2023-09-12T14:15:27;30.60;89.00
56103;DHT22;41970;48.774;9.280;2023-09-12T14:17:52;30.70;88.80
56103;DHT22;41970;48.774;9.280;2023-09-12T14:20:18;30.70;88.30
56103;DHT22;41970;48.774;9.280;2023-09-12T14:22:44;30.70;86.90
56103;DHT22;41970;48.774;9.280;2023-09-12T14:25:10;30.70;87.40
56103;DHT22;41970;48.774;9.280;2023-09-12T14:27:43;30.70;88.10
56103;DHT22;41970;48.774;9.280;2023-09-12T14:30:10;30.70;86.50
56103;DHT22;41970;48.774;9.280;2023-09-12T14:32:36;30.80;86.70
56103;DHT22;41970;48.774;9.280;2023-09-12T14:35:03;30.90;86.20
56103;DHT22;41970;48.774;9.280;2023-09-12T14:37:29;31.00;86.40
56103;DHT22;41970;48.774;9.280;2023-09-12T14:39:55;31.00;87.10
56103;DHT22;41970;48.774;9.280;2023-09-12T14:42:21;31.00;87.80
56103;DHT22;41970;48.774;9.280;2023-09-12T14:44:47;31.00;89.00
56103;DHT22;41970;48.774;9.280;2023-09-12T14:47:13;31.00;86.90
56103;DHT22;41970;48.774;9.280;2023-09-12T14:49:39;31.00;86.50
56103;DHT22;41970;48.774;9.280;2023-09-12T14:52:05;31.00;87.90
56103;DHT22;41970;48.774;9.280;2023-09-12T14:54:31;30.90;88.80
56103;DHT22;41970;48.774;9.280;2023-09-12T14:56:56;30.80;90.10
56103;DHT22;41970;48.774;9.280;2023-09-12T14:59:22;30.70;90.20
56103;DHT22;41970;48.774;9.280;2023-09-12T15:01:48;30.70;90.40
56103;DHT22;41970;48.774;9.280;2023-09-12T15:04:14;30.70;90.70
56103;DHT22;41970;48.774;9.280;2023-09-12T15:06:40;30.50;90.90
56103;DHT22;41970;48.774;9.280;2023-09-12T15:09:06;30.50;91.00
56103;DHT22;41970;48.774;9.280;2023-09-12T15:11:32;30.60;91.00
56103;DHT22;41970;48.774;9.280;2023-09-12T15:13:58;30.60;91.30
56103;DHT22;41970;48.774;9.280;2023-09-12T15:16:25;30.60;91.30
56103;DHT22;41970;48.774;9.280;2023-09-12T15:18:51;30.60;91.10
56103;DHT22;41970;48.774;9.280;2023-09-12T15:21:17;30.50;91.40
56103;DHT22;41970;48.774;9.280;2023-09-12T15:23:43;30.50;91.50
56103;DHT22;41970;48.774;9.280;2023-09-12T15:26:09;30.50;91.60
56103;DHT22;41970;48.774;9.280;2023-09-12T15:28:34;30.50;91.80
56103;DHT22;41970;48.774;9.280;2023-09-12T15:31:00;30.60;91.60
56103;DHT22;41970;48.774;9.280;2023-09-12T15:33:28;30.50;91.60
56103;DHT22;41970;48.774;9.280;2023-09-12T15:35:55;30.40;91.40
56103;DHT22;41970;48.774;9.280;2023-09-12T15:38:20;30.50;91.50
56103;DHT22;41970;48.774;9.280;2023-09-12T15:40:46;30.50;91.70
56103;DHT22;41970;48.774;9.280;2023-09-12T15:43:12;30.10;91.90
56103;DHT22;41970;48.774;9.280;2023-09-12T15:45:38;30.10;92.10
56103;DHT22;41970;48.774;9.280;2023-09-12T15:48:04;30.20;92.50